Time;durP1;ratioP1;P1;durP2;ratioP2;P2;SDS_P1;SDS_P2;PMS_P1;PMS_P2;Temp;Humidity;BMP_temperature;BMP_pressure;BME280_temperature;BME280_humidity;BME280_pressure;Samples;Min_cycle;Max_cycle;Signal;HPM_P1;HPM_P2
2022/12/06 00:01:17;;;;;;;;;;;5.50;96.00;;;;;;5094675;28;20041;-89
2022/12/06 00:03:44;;;;;;;;;;;5.40;96.00;;;;;;5093551;28;20422;-88
2022/12/06 00:06:11;;;;;;;;;;;5.40;96.00;;;;;;5095097;28;19943;-90
2022/12/06 00:08:37;;;;;;;;;;;5.50;96.20;;;;;;5094729;28;19947;-89
2022/12/06 00:11:23;;;;;;;;;;;5.50;96.10;;;;;;5094676;28;20025;-90
2022/12/06 00:13:52;;;;;;;;;;;5.50;96.10;;;;;;5094248;28;19998;-88
2022/12/06 00:16:18;;;;;;;;;;;5.60;96.00;;;;;;5094447;28;19961;-89
2022/12/06 00:18:44;;;;;;;;;;;5.70;96.50;;;;;;5094550;28;19935;-89
2022/12/06 00:21:20;;;;;;;;;;;5.80;96.40;;;;;;5094232;28;19936;-89
2022/12/06 00:23:50;;;;;;;;;;;5.50;96.00;;;;;;5094252;28;19945;-90
2022/12/06 00:26:16;;;;;;;;;;;5.30;95.70;;;;;;5094390;28;19937;-90
2022/12/06 00:28:42;;;;;;;;;;;5.30;96.00;;;;;;5094364;28;19936;-88
2022/12/06 00:31:15;;;;;;;;;;;5.20;96.00;;;;;;5094315;28;19937;-89
2022/12/06 00:33:40;;;;;;;;;;;5.10;96.20;;;;;;5094253;28;19945;-88
2022/12/06 00:36:09;;;;;;;;;;;5.20;96.30;;;;;;5093965;28;19976;-89
2022/12/06 00:38:35;;;;;;;;;;;5.20;96.50;;;;;;5094209;28;19991;-89
2022/12/06 00:41:03;;;;;;;;;;;5.10;96.40;;;;;;5094150;28;19944;-89
2022/12/06 00:43:28;;;;;;;;;;;5.00;96.20;;;;;;5094319;28;20426;-89
2022/12/06 00:45:54;;;;;;;;;;;5.00;96.30;;;;;;5094044;28;19983;-89
2022/12/06 00:48:20;;;;;;;;;;;5.20;96.80;;;;;;5094020;28;20031;-89
2022/12/06 00:50:46;;;;;;;;;;;5.20;96.70;;;;;;5093646;28;20383;-89
2022/12/06 00:53:11;;;;;;;;;;;5.20;96.50;;;;;;5093360;28;19961;-89
2022/12/06 00:55:37;;;;;;;;;;;5.10;96.60;;;;;;5093748;28;19954;-89
2022/12/06 00:58:02;;;;;;;;;;;5.30;96.60;;;;;;5093844;28;19947;-88
2022/12/06 01:00:28;;;;;;;;;;;5.30;96.60;;;;;;5093781;28;19950;-89
2022/12/06 01:02:53;;;;;;;;;;;5.20;96.50;;;;;;5093723;28;19942;-89
2022/12/06 01:05:19;;;;;;;;;;;5.10;96.30;;;;;;5093282;28;19940;-88
2022/12/06 01:07:44;;;;;;;;;;;5.00;96.50;;;;;;5093679;28;19948;-89
2022/12/06 01:10:10;;;;;;;;;;;5.00;96.50;;;;;;5093660;28;19948;-89
2022/12/06 01:12:36;;;;;;;;;;;5.00;96.50;;;;;;5093558;28;20052;-89
2022/12/06 01:15:02;;;;;;;;;;;5.00;96.50;;;;;;5093482;28;19949;-88
2022/12/06 01:17:27;;;;;;;;;;;4.90;96.50;;;;;;5093531;28;19946;-88
2022/12/06 01:19:53;;;;;;;;;;;4.70;96.40;;;;;;5093511;28;20033;-89
2022/12/06 01:22:18;;;;;;;;;;;4.60;96.30;;;;;;5093184;28;20410;-88
2022/12/06 01:24:45;;;;;;;;;;;4.50;96.20;;;;;;5093438;28;20335;-89
2022/12/06 01:27:11;;;;;;;;;;;4.40;96.20;;;;;;5093379;28;19948;-88
2022/12/06 01:29:36;;;;;;;;;;;4.40;96.10;;;;;;5093408;28;19938;-88
2022/12/06 01:32:02;;;;;;;;;;;4.20;95.90;;;;;;5093361;28;19971;-88
2022/12/06 01:34:27;;;;;;;;;;;4.10;96.10;;;;;;5097405;22;20301;-88
2022/12/06 01:36:53;;;;;;;;;;;4.20;96.40;;;;;;5068260;28;20024;-89
2022/12/06 01:39:19;;;;;;;;;;;4.10;96.30;;;;;;5052976;28;19953;-88
2022/12/06 01:41:45;;;;;;;;;;;4.00;96.30;;;;;;5053018;28;20046;-88
2022/12/06 01:44:29;;;;;;;;;;;4.00;96.40;;;;;;5053011;28;20396;-88
2022/12/06 01:46:54;;;;;;;;;;;4.00;96.30;;;;;;5052894;28;19939;-89
2022/12/06 01:49:24;;;;;;;;;;;4.10;96.30;;;;;;5052951;28;20476;-88
2022/12/06 01:51:52;;;;;;;;;;;4.10;96.30;;;;;;5054021;28;20393;-88
2022/12/06 01:54:19;;;;;;;;;;;4.10;96.40;;;;;;5052836;28;19949;-89
2022/12/06 01:56:45;;;;;;;;;;;4.10;96.30;;;;;;5052794;28;19942;-88
2022/12/06 01:59:11;;;;;;;;;;;4.20;96.50;;;;;;5052850;28;19938;-89
2022/12/06 02:01:37;;;;;;;;;;;4.40;96.60;;;;;;5052817;28;20320;-89
2022/12/06 02:04:03;;;;;;;;;;;4.40;96.60;;;;;;5052803;28;19942;-89
2022/12/06 02:06:29;;;;;;;;;;;4.60;96.70;;;;;;5052739;28;19951;-88
2022/12/06 02:08:57;;;;;;;;;;;4.70;96.70;;;;;;5052772;28;19935;-89
2022/12/06 02:11:22;;;;;;;;;;;4.90;96.80;;;;;;5052715;28;19949;-89
2022/12/06 02:13:48;;;;;;;;;;;5.00;96.60;;;;;;5052429;28;19948;-89
2022/12/06 02:16:26;;;;;;;;;;;4.80;96.10;;;;;;5051250;28;20012;-89
2022/12/06 02:19:09;;;;;;;;;;;4.80;95.90;;;;;;5053994;28;20392;-89
2022/12/06 02:21:47;;;;;;;;;;;4.80;95.70;;;;;;5056529;28;19948;-89
2022/12/06 02:24:24;;;;;;;;;;;4.90;95.70;;;;;;5056399;28;20362;-89
2022/12/06 02:26:51;;;;;;;;;;;4.90;95.20;;;;;;5056404;28;20374;-89
2022/12/06 02:29:23;;;;;;;;;;;4.90;95.10;;;;;;5055108;28;20433;-88
2022/12/06 02:32:07;;;;;;;;;;;5.00;95.00;;;;;;5056374;28;20040;-89
2022/12/06 02:34:39;;;;;;;;;;;5.00;95.30;;;;;;5056078;28;19973;-89
2022/12/06 02:37:23;;;;;;;;;;;5.00;95.50;;;;;;5054912;28;19963;-89
2022/12/06 02:39:53;;;;;;;;;;;5.10;95.60;;;;;;5056258;28;19972;-89
2022/12/06 02:42:23;;;;;;;;;;;5.10;96.20;;;;;;5054742;28;19948;-88
2022/12/06 02:44:51;;;;;;;;;;;5.40;96.50;;;;;;5056070;28;19942;-88
2022/12/06 02:47:20;;;;;;;;;;;5.40;96.70;;;;;;5056068;28;20399;-89
2022/12/06 02:49:48;;;;;;;;;;;5.60;97.20;;;;;;5055765;28;19957;-89
2022/12/06 02:52:14;;;;;;;;;;;5.60;97.20;;;;;;5055599;28;19966;-90
2022/12/06 02:54:42;;;;;;;;;;;5.60;97.30;;;;;;5055844;28;19948;-89
2022/12/06 02:57:08;;;;;;;;;;;5.70;97.40;;;;;;5055480;28;19967;-88
2022/12/06 02:59:33;;;;;;;;;;;5.70;97.40;;;;;;5056081;28;20397;-88
2022/12/06 03:02:01;;;;;;;;;;;5.70;97.40;;;;;;5055762;28;20402;-89
2022/12/06 03:04:33;;;;;;;;;;;5.70;97.50;;;;;;5055731;28;19964;-88
2022/12/06 03:07:04;;;;;;;;;;;5.70;97.60;;;;;;5055691;28;19969;-88
2022/12/06 03:09:42;;;;;;;;;;;5.90;97.60;;;;;;5055623;28;19973;-88
2022/12/06 03:12:16;;;;;;;;;;;5.90;97.70;;;;;;5055576;28;20033;-88
2022/12/06 03:14:48;;;;;;;;;;;5.90;97.70;;;;;;5055769;28;19965;-88
2022/12/06 03:17:25;;;;;;;;;;;5.90;97.80;;;;;;5055396;28;19967;-89
2022/12/06 03:19:55;;;;;;;;;;;5.90;97.80;;;;;;5055451;28;19975;-89
2022/12/06 03:22:22;;;;;;;;;;;5.90;97.80;;;;;;5055129;28;20390;-88
2022/12/06 03:24:48;;;;;;;;;;;6.00;97.80;;;;;;5055366;28;19958;-88
2022/12/06 03:27:15;;;;;;;;;;;5.90;97.80;;;;;;5055318;28;20337;-89
2022/12/06 03:29:43;;;;;;;;;;;5.80;97.90;;;;;;5054892;28;19942;-89
2022/12/06 03:32:09;;;;;;;;;;;5.90;97.90;;;;;;5055213;28;20305;-88
2022/12/06 03:34:36;;;;;;;;;;;5.90;98.00;;;;;;5055008;28;20422;-88
2022/12/06 03:37:04;;;;;;;;;;;6.00;98.00;;;;;;5055022;28;19958;-88
2022/12/06 03:39:48;;;;;;;;;;;6.00;98.00;;;;;;5055018;28;19947;-89
2022/12/06 03:42:14;;;;;;;;;;;6.00;98.00;;;;;;5055327;28;19949;-88
2022/12/06 03:44:39;;;;;;;;;;;6.00;98.10;;;;;;5054992;28;20559;-88
2022/12/06 03:47:07;;;;;;;;;;;6.10;98.10;;;;;;5054940;28;19966;-88
2022/12/06 03:50:05;;;;;;;;;;;6.10;98.10;;;;;;5054711;28;20028;-88
2022/12/06 03:52:32;;;;;;;;;;;6.10;98.10;;;;;;5042199;28;20014;-89
2022/12/06 03:54:57;;;;;;;;;;;6.10;98.10;;;;;;5054754;28;19988;-89
2022/12/06 03:57:23;;;;;;;;;;;6.10;98.20;;;;;;5054674;28;19958;-89
2022/12/06 03:59:49;;;;;;;;;;;6.10;98.10;;;;;;5054637;28;20348;-89
2022/12/06 04:02:14;;;;;;;;;;;6.10;98.10;;;;;;5053052;28;19945;-88
2022/12/06 04:04:40;;;;;;;;;;;6.10;98.20;;;;;;5054643;28;20360;-89
2022/12/06 04:07:05;;;;;;;;;;;6.10;98.20;;;;;;5054550;28;19939;-90
2022/12/06 04:14:59;;;;;;;;;;;6.00;98.20;;;;;;5054402;28;19948;-88
2022/12/06 04:20:09;;;;;;;;;;;6.00;98.20;;;;;;5054292;28;19990;-88
2022/12/06 04:25:18;;;;;;;;;;;6.10;98.20;;;;;;5054442;28;19950;-89
2022/12/06 04:38:41;;;;;;;;;;;5.90;98.30;;;;;;5053976;28;19949;-89
2022/12/06 04:41:07;;;;;;;;;;;6.00;98.30;;;;;;5053226;28;19941;-89
2022/12/06 04:43:41;;;;;;;;;;;6.10;98.30;;;;;;5053815;28;20028;-89
2022/12/06 04:46:11;;;;;;;;;;;6.10;98.30;;;;;;5053852;28;20042;-89
2022/12/06 04:48:36;;;;;;;;;;;6.10;98.20;;;;;;5053785;28;19961;-88
2022/12/06 04:51:02;;;;;;;;;;;6.10;98.20;;;;;;5053453;28;20317;-89
2022/12/06 04:53:28;;;;;;;;;;;6.00;98.20;;;;;;5053092;28;20458;-89
2022/12/06 04:55:53;;;;;;;;;;;6.00;98.10;;;;;;5053588;28;20426;-89
2022/12/06 04:58:19;;;;;;;;;;;6.00;98.10;;;;;;5053628;28;19993;-89
2022/12/06 05:00:44;;;;;;;;;;;5.90;98.00;;;;;;5053590;28;19945;-89
2022/12/06 05:03:11;;;;;;;;;;;5.70;98.00;;;;;;5053757;28;19944;-89
2022/12/06 05:05:37;;;;;;;;;;;5.70;98.00;;;;;;5053519;28;19948;-89
2022/12/06 05:08:03;;;;;;;;;;;5.60;98.00;;;;;;5053687;28;19938;-88
2022/12/06 05:10:28;;;;;;;;;;;5.60;98.00;;;;;;5052129;28;20403;-89
2022/12/06 05:12:54;;;;;;;;;;;5.70;98.00;;;;;;5053369;28;19950;-89
2022/12/06 05:15:19;;;;;;;;;;;5.80;98.00;;;;;;5053256;28;19937;-89
2022/12/06 05:17:45;;;;;;;;;;;5.80;98.00;;;;;;5053318;28;19939;-89
2022/12/06 05:20:10;;;;;;;;;;;5.90;98.00;;;;;;5053271;28;19972;-89
2022/12/06 05:22:36;;;;;;;;;;;5.90;98.00;;;;;;5052944;28;19992;-89
2022/12/06 05:25:02;;;;;;;;;;;5.90;98.00;;;;;;5053470;28;19941;-89
2022/12/06 05:27:27;;;;;;;;;;;5.90;97.90;;;;;;5053215;28;19936;-89
2022/12/06 05:29:53;;;;;;;;;;;5.80;97.80;;;;;;5053121;28;19937;-88
2022/12/06 05:32:19;;;;;;;;;;;5.90;97.80;;;;;;5053061;28;19946;-88
2022/12/06 05:34:44;;;;;;;;;;;5.80;97.70;;;;;;5053152;28;19972;-89
2022/12/06 05:37:10;;;;;;;;;;;5.90;97.70;;;;;;5053037;28;19964;-89
2022/12/06 05:39:36;;;;;;;;;;;5.80;97.70;;;;;;5053087;28;19956;-89
2022/12/06 05:42:01;;;;;;;;;;;5.50;97.60;;;;;;5053043;28;20038;-89
2022/12/06 05:44:27;;;;;;;;;;;5.30;97.50;;;;;;5053051;28;19951;-89
2022/12/06 05:46:53;;;;;;;;;;;5.20;97.50;;;;;;5052538;28;20412;-89
2022/12/06 05:49:18;;;;;;;;;;;5.20;97.50;;;;;;5052943;28;19942;-89
2022/12/06 05:51:44;;;;;;;;;;;5.30;97.60;;;;;;5053635;28;20311;-90
2022/12/06 05:54:09;;;;;;;;;;;5.20;97.60;;;;;;5056961;28;19948;-89
2022/12/06 05:56:35;;;;;;;;;;;5.30;97.60;;;;;;5056939;28;19961;-89
2022/12/06 05:59:02;;;;;;;;;;;5.40;97.60;;;;;;5056919;28;19953;-89
2022/12/06 06:01:27;;;;;;;;;;;5.50;97.70;;;;;;5056614;28;19938;-89
2022/12/06 06:03:53;;;;;;;;;;;5.50;97.60;;;;;;5056863;28;19941;-90
2022/12/06 06:06:18;;;;;;;;;;;5.40;97.60;;;;;;5056824;28;19995;-90
2022/12/06 06:08:44;;;;;;;;;;;5.40;97.60;;;;;;5056598;28;19942;-89
2022/12/06 06:11:09;;;;;;;;;;;5.50;97.70;;;;;;5056787;28;19941;-89
2022/12/06 06:13:35;;;;;;;;;;;5.50;97.70;;;;;;5056747;28;20304;-89
2022/12/06 06:16:00;;;;;;;;;;;5.60;97.60;;;;;;5056268;28;19960;-89
2022/12/06 06:18:26;;;;;;;;;;;5.50;97.60;;;;;;5056643;28;19943;-90
2022/12/06 06:20:53;;;;;;;;;;;5.50;97.70;;;;;;5056278;28;19938;-89
2022/12/06 06:23:19;;;;;;;;;;;5.60;97.70;;;;;;5054745;28;20311;-90
2022/12/06 06:25:45;;;;;;;;;;;5.70;97.70;;;;;;5037751;28;20315;-89
2022/12/06 06:28:11;;;;;;;;;;;5.60;97.60;;;;;;5036211;28;20034;-89
2022/12/06 06:30:36;;;;;;;;;;;5.40;97.50;;;;;;5049304;28;19948;-90
2022/12/06 06:33:02;;;;;;;;;;;5.30;97.50;;;;;;5049880;28;19965;-90
2022/12/06 06:35:28;;;;;;;;;;;5.30;97.50;;;;;;5050100;28;20108;-91
2022/12/06 06:37:53;;;;;;;;;;;5.30;97.50;;;;;;5052435;28;19956;-90
2022/12/06 06:40:20;;;;;;;;;;;5.30;97.50;;;;;;5054553;28;19946;-90
2022/12/06 06:42:46;;;;;;;;;;;5.30;97.60;;;;;;5053764;28;20055;-90
2022/12/06 06:45:11;;;;;;;;;;;5.30;97.50;;;;;;5054096;28;19965;-90
2022/12/06 06:47:37;;;;;;;;;;;5.30;97.50;;;;;;5047245;28;20013;-89
2022/12/06 06:50:03;;;;;;;;;;;5.20;97.40;;;;;;5043685;28;19951;-89
2022/12/06 06:52:28;;;;;;;;;;;5.20;97.30;;;;;;5049035;28;19956;-89
2022/12/06 06:54:54;;;;;;;;;;;5.10;97.30;;;;;;5048470;28;19949;-89
2022/12/06 06:57:19;;;;;;;;;;;5.10;97.40;;;;;;5053236;28;19966;-89
2022/12/06 06:59:45;;;;;;;;;;;5.30;97.40;;;;;;5051955;28;19942;-90
2022/12/06 07:02:13;;;;;;;;;;;5.30;97.30;;;;;;5053139;28;20331;-89
2022/12/06 07:04:39;;;;;;;;;;;5.30;97.10;;;;;;5052974;28;19953;-90
2022/12/06 07:07:05;;;;;;;;;;;5.20;97.10;;;;;;5052154;28;20322;-90
2022/12/06 07:09:30;;;;;;;;;;;5.10;97.10;;;;;;5046110;28;19953;-90
2022/12/06 07:11:56;;;;;;;;;;;5.10;97.20;;;;;;5050970;28;19976;-90
2022/12/06 07:14:21;;;;;;;;;;;5.30;97.30;;;;;;5049150;28;19949;-89
2022/12/06 07:16:47;;;;;;;;;;;5.30;97.30;;;;;;5049265;28;19963;-90
2022/12/06 07:19:13;;;;;;;;;;;5.40;97.30;;;;;;5049269;28;19942;-90
2022/12/06 07:21:38;;;;;;;;;;;5.20;97.00;;;;;;5051768;28;19949;-90
2022/12/06 07:24:04;;;;;;;;;;;5.20;97.00;;;;;;5045028;28;20451;-89
2022/12/06 07:26:29;;;;;;;;;;;5.10;96.90;;;;;;5050107;28;19946;-88
2022/12/06 07:28:56;;;;;;;;;;;5.00;96.80;;;;;;5047572;28;19950;-90
2022/12/06 07:31:23;;;;;;;;;;;4.80;96.80;;;;;;5053215;28;20309;-90
2022/12/06 07:33:53;;;;;;;;;;;4.70;96.90;;;;;;5048099;28;19943;-89
2022/12/06 07:36:19;;;;;;;;;;;4.60;96.90;;;;;;5046244;28;19995;-88
2022/12/06 07:38:55;;;;;;;;;;;4.50;96.90;;;;;;5040475;28;20027;-89
2022/12/06 07:46:49;;;;;;;;;;;4.60;97.10;;;;;;5051331;28;20365;-89
2022/12/06 07:49:16;;;;;;;;;;;4.70;97.20;;;;;;5045425;28;20402;-89
2022/12/06 07:51:42;;;;;;;;;;;4.80;97.30;;;;;;5051075;28;19995;-90
2022/12/06 07:54:08;;;;;;;;;;;4.90;97.30;;;;;;5049243;28;20340;-90
2022/12/06 07:56:33;;;;;;;;;;;4.80;97.10;;;;;;5044480;28;19958;-90
2022/12/06 07:58:59;;;;;;;;;;;4.70;96.80;;;;;;5047612;28;20042;-89
2022/12/06 08:01:25;;;;;;;;;;;4.70;97.00;;;;;;5048591;28;19947;-89
2022/12/06 08:03:51;;;;;;;;;;;4.70;97.00;;;;;;5050632;28;20025;-90
2022/12/06 08:06:16;;;;;;;;;;;4.70;97.00;;;;;;5044503;28;19975;-89
2022/12/06 08:08:42;;;;;;;;;;;4.80;97.10;;;;;;5044413;28;19949;-89
2022/12/06 08:11:08;;;;;;;;;;;4.80;97.10;;;;;;5051023;28;19943;-89
2022/12/06 08:13:34;;;;;;;;;;;4.80;97.20;;;;;;5049987;28;20047;-90
2022/12/06 08:16:04;;;;;;;;;;;4.70;97.10;;;;;;5044991;28;19962;-90
2022/12/06 08:18:29;;;;;;;;;;;4.80;97.30;;;;;;5046686;28;19953;-90
2022/12/06 08:20:56;;;;;;;;;;;4.90;97.30;;;;;;5052931;28;20037;-90
2022/12/06 08:23:22;;;;;;;;;;;4.90;97.20;;;;;;5050038;28;19943;-89
2022/12/06 08:25:55;;;;;;;;;;;4.90;97.20;;;;;;5049082;28;19943;-90
2022/12/06 08:28:20;;;;;;;;;;;4.90;97.30;;;;;;5049023;28;20029;-90
2022/12/06 08:30:46;;;;;;;;;;;4.90;97.30;;;;;;5050825;28;20033;-90
2022/12/06 08:33:11;;;;;;;;;;;5.10;97.30;;;;;;5049255;28;19944;-89
2022/12/06 08:35:37;;;;;;;;;;;5.00;97.10;;;;;;5049333;28;19982;-89
2022/12/06 08:38:02;;;;;;;;;;;4.90;97.10;;;;;;5051173;28;20328;-90
2022/12/06 08:40:28;;;;;;;;;;;5.00;97.10;;;;;;5044181;28;20382;-90
2022/12/06 08:42:53;;;;;;;;;;;4.90;97.00;;;;;;5050820;28;19995;-91
2022/12/06 08:45:19;;;;;;;;;;;5.00;97.20;;;;;;5044311;28;19948;-89
2022/12/06 08:47:44;;;;;;;;;;;5.10;97.10;;;;;;5048280;28;19951;-90
2022/12/06 08:50:10;;;;;;;;;;;5.10;97.10;;;;;;5050791;28;19949;-90
2022/12/06 08:52:36;;;;;;;;;;;5.10;97.10;;;;;;5049800;28;19976;-90
2022/12/06 08:55:01;;;;;;;;;;;5.30;97.20;;;;;;5046297;28;19994;-90
2022/12/06 08:57:27;;;;;;;;;;;5.30;97.10;;;;;;5046250;28;20057;-89
2022/12/06 08:59:52;;;;;;;;;;;5.20;97.10;;;;;;5052641;28;19949;-90
2022/12/06 09:02:18;;;;;;;;;;;5.10;96.90;;;;;;5045119;28;19949;-89
2022/12/06 09:04:43;;;;;;;;;;;5.20;96.90;;;;;;5048467;28;20024;-89
2022/12/06 09:07:09;;;;;;;;;;;5.20;96.80;;;;;;5047836;28;20312;-89
2022/12/06 09:09:34;;;;;;;;;;;5.20;96.80;;;;;;5044630;28;20046;-90
2022/12/06 09:12:00;;;;;;;;;;;5.30;96.80;;;;;;5045187;28;19945;-90
2022/12/06 09:14:26;;;;;;;;;;;5.40;96.80;;;;;;5049970;28;19949;-90
2022/12/06 09:16:51;;;;;;;;;;;5.40;96.70;;;;;;5051670;28;19970;-90
2022/12/06 09:19:17;;;;;;;;;;;5.40;96.70;;;;;;5041540;28;20400;-90
2022/12/06 09:21:43;;;;;;;;;;;5.40;96.60;;;;;;5039834;28;19965;-90
2022/12/06 09:24:12;;;;;;;;;;;5.50;96.80;;;;;;5047401;28;20423;-90
2022/12/06 09:26:38;;;;;;;;;;;5.70;96.90;;;;;;5048518;28;20031;-90
2022/12/06 09:29:04;;;;;;;;;;;5.80;96.70;;;;;;5049388;28;20041;-90
2022/12/06 09:31:29;;;;;;;;;;;5.80;96.40;;;;;;5050099;28;19942;-90
2022/12/06 09:33:55;;;;;;;;;;;5.80;96.10;;;;;;5051497;28;19993;-90
2022/12/06 09:36:28;;;;;;;;;;;5.70;95.70;;;;;;5071172;22;19951;-90
2022/12/06 09:38:58;;;;;;;;;;;5.60;95.50;;;;;;5061147;28;20363;-90
2022/12/06 09:41:53;;;;;;;;;;;5.80;95.80;;;;;;5067735;28;20382;-89
2022/12/06 09:44:44;;;;;;;;;;;6.00;95.70;;;;;;5056225;28;20306;-89
2022/12/06 09:47:28;;;;;;;;;;;6.00;95.50;;;;;;5066750;28;20358;-89
2022/12/06 09:50:07;;;;;;;;;;;6.00;95.40;;;;;;5069060;28;20059;-89
2022/12/06 09:52:52;;;;;;;;;;;6.10;95.40;;;;;;5056999;28;19961;-89
2022/12/06 09:55:28;;;;;;;;;;;6.20;95.20;;;;;;5063361;28;19942;-90
2022/12/06 09:57:56;;;;;;;;;;;6.20;94.90;;;;;;5063422;28;19999;-90
2022/12/06 10:00:22;;;;;;;;;;;6.10;94.50;;;;;;5064907;28;20373;-90
2022/12/06 10:02:53;;;;;;;;;;;6.00;94.20;;;;;;5068129;28;19992;-90
2022/12/06 10:05:31;;;;;;;;;;;6.10;94.50;;;;;;5065034;28;19942;-89
2022/12/06 10:08:17;;;;;;;;;;;6.20;94.70;;;;;;5063444;28;19998;-90
2022/12/06 10:10:55;;;;;;;;;;;6.40;94.50;;;;;;5069490;28;19951;-90
2022/12/06 10:13:21;;;;;;;;;;;6.50;94.60;;;;;;5062452;28;19947;-90
2022/12/06 10:16:05;;;;;;;;;;;6.70;94.10;;;;;;5068126;28;19963;-90
2022/12/06 10:18:31;;;;;;;;;;;6.70;93.70;;;;;;5063252;28;19948;-90
2022/12/06 10:20:59;;;;;;;;;;;6.70;93.40;;;;;;5061780;28;19946;-90
2022/12/06 10:23:37;;;;;;;;;;;6.70;92.50;;;;;;5068285;28;19990;-90
2022/12/06 10:26:05;;;;;;;;;;;6.70;92.60;;;;;;5065311;28;19947;-90
2022/12/06 10:28:34;;;;;;;;;;;6.70;91.50;;;;;;5062387;28;20408;-90
2022/12/06 10:31:26;;;;;;;;;;;6.80;92.40;;;;;;5063272;28;19980;-91
2022/12/06 10:33:54;;;;;;;;;;;6.90;92.30;;;;;;5062403;28;19956;-90
2022/12/06 10:36:37;;;;;;;;;;;7.00;91.60;;;;;;5061888;28;20066;-90
2022/12/06 10:39:21;;;;;;;;;;;7.20;91.40;;;;;;5071737;28;20433;-90
2022/12/06 10:41:53;;;;;;;;;;;7.40;91.00;;;;;;5072085;28;19951;-89
2022/12/06 10:44:18;;;;;;;;;;;7.60;89.60;;;;;;5066840;28;19946;-89
2022/12/06 10:47:03;;;;;;;;;;;7.50;88.50;;;;;;5071745;28;19949;-90
2022/12/06 10:49:31;;;;;;;;;;;7.80;89.00;;;;;;5071806;28;19943;-90
2022/12/06 10:52:04;;;;;;;;;;;7.60;88.70;;;;;;5072445;28;19997;-90
2022/12/06 10:54:29;;;;;;;;;;;7.50;88.60;;;;;;5070737;28;20044;-90
2022/12/06 10:56:56;;;;;;;;;;;7.30;88.60;;;;;;5071481;28;20064;-90
2022/12/06 10:59:31;;;;;;;;;;;7.20;89.30;;;;;;5068531;28;20540;-90
2022/12/06 11:01:58;;;;;;;;;;;7.30;90.10;;;;;;5067049;28;20394;-90
2022/12/06 11:04:27;;;;;;;;;;;7.40;90.40;;;;;;5067191;28;20967;-89
2022/12/06 11:06:59;;;;;;;;;;;7.60;90.20;;;;;;5067466;28;19974;-90
2022/12/06 11:09:24;;;;;;;;;;;7.60;89.50;;;;;;5070321;28;20338;-89
2022/12/06 11:11:50;;;;;;;;;;;7.50;88.90;;;;;;5069589;28;20363;-90
2022/12/06 11:14:25;;;;;;;;;;;7.70;88.40;;;;;;5074906;28;19950;-90
2022/12/06 11:16:55;;;;;;;;;;;7.60;88.10;;;;;;5074235;28;19961;-90
2022/12/06 11:19:21;;;;;;;;;;;7.50;88.10;;;;;;5074674;28;19949;-90
2022/12/06 11:21:52;;;;;;;;;;;7.30;88.70;;;;;;5068443;28;19951;-90
2022/12/06 11:24:18;;;;;;;;;;;7.10;89.10;;;;;;5072176;28;19953;-90
2022/12/06 11:26:47;;;;;;;;;;;6.90;90.00;;;;;;5074376;28;19965;-90
2022/12/06 11:29:14;;;;;;;;;;;6.90;90.50;;;;;;5072843;28;19991;-90
2022/12/06 11:31:44;;;;;;;;;;;7.00;90.80;;;;;;5074948;28;19950;-90
2022/12/06 11:34:13;;;;;;;;;;;7.10;91.00;;;;;;5074519;28;20187;-90
2022/12/06 11:36:39;;;;;;;;;;;7.10;91.10;;;;;;5071493;28;19973;-90
2022/12/06 11:39:05;;;;;;;;;;;7.30;91.40;;;;;;5074158;28;19945;-89
2022/12/06 11:41:33;;;;;;;;;;;7.40;91.50;;;;;;5072211;28;19953;-90
2022/12/06 11:43:59;;;;;;;;;;;7.60;90.70;;;;;;5074222;28;19942;-89
2022/12/06 11:46:25;;;;;;;;;;;7.70;89.70;;;;;;5071690;28;19949;-89
2022/12/06 11:48:51;;;;;;;;;;;7.60;89.30;;;;;;5072997;28;20025;-89
2022/12/06 11:51:19;;;;;;;;;;;7.50;89.10;;;;;;5073248;28;20034;-90
2022/12/06 11:54:04;;;;;;;;;;;7.50;89.30;;;;;;5072583;28;19963;-90
2022/12/06 11:56:31;;;;;;;;;;;7.60;89.70;;;;;;5072596;28;19973;-90
2022/12/06 11:59:01;;;;;;;;;;;7.50;89.80;;;;;;5073476;28;19947;-91
2022/12/06 12:01:37;;;;;;;;;;;7.50;89.90;;;;;;5073712;28;19948;-90
2022/12/06 12:04:21;;;;;;;;;;;7.70;90.20;;;;;;5074113;28;19941;-90
2022/12/06 12:06:48;;;;;;;;;;;7.80;90.00;;;;;;5073005;28;19980;-89
2022/12/06 12:09:17;;;;;;;;;;;8.00;90.30;;;;;;5074315;28;20042;-89
2022/12/06 12:11:43;;;;;;;;;;;8.00;88.70;;;;;;5074452;28;19941;-89
2022/12/06 12:14:25;;;;;;;;;;;8.10;88.70;;;;;;5074478;28;19943;-89
2022/12/06 12:16:53;;;;;;;;;;;7.90;87.50;;;;;;5073802;28;20158;-90
2022/12/06 12:19:35;;;;;;;;;;;8.00;88.20;;;;;;5074205;28;19980;-90
2022/12/06 12:22:13;;;;;;;;;;;8.00;88.50;;;;;;5073429;28;20039;-90
2022/12/06 12:24:44;;;;;;;;;;;8.10;88.50;;;;;;5074234;28;20003;-90
2022/12/06 12:27:28;;;;;;;;;;;8.40;88.70;;;;;;5073274;28;19942;-90
2022/12/06 12:30:12;;;;;;;;;;;9.10;88.40;;;;;;5064282;28;19950;-90
2022/12/06 12:32:38;;;;;;;;;;;9.70;86.10;;;;;;5061703;28;20338;-90
2022/12/06 12:35:24;;;;;;;;;;;10.70;84.30;;;;;;5069378;28;19982;-90
2022/12/06 12:37:51;;;;;;;;;;;11.70;79.90;;;;;;5063155;28;19955;-90
2022/12/06 12:40:32;;;;;;;;;;;12.40;73.80;;;;;;5068920;28;20003;-90
2022/12/06 12:42:59;;;;;;;;;;;12.80;72.80;;;;;;5068382;28;20503;-90
2022/12/06 12:45:26;;;;;;;;;;;13.10;71.60;;;;;;5071363;28;20905;-90
2022/12/06 12:48:18;;;;;;;;;;;13.40;70.10;;;;;;5062324;28;19949;-90
2022/12/06 12:50:51;;;;;;;;;;;13.70;68.70;;;;;;5068005;28;19949;-90
2022/12/06 12:53:27;;;;;;;;;;;14.00;67.90;;;;;;5071811;28;20054;-90
2022/12/06 12:56:04;;;;;;;;;;;14.20;67.80;;;;;;5067483;28;20110;-90
2022/12/06 12:58:29;;;;;;;;;;;14.00;67.00;;;;;;5069332;28;20038;-90
2022/12/06 13:00:57;;;;;;;;;;;14.50;65.20;;;;;;5067218;28;20026;-90
2022/12/06 13:03:25;;;;;;;;;;;14.80;64.70;;;;;;5067934;28;19952;-90
2022/12/06 13:05:50;;;;;;;;;;;14.80;63.90;;;;;;5067144;28;19992;-90
2022/12/06 13:08:25;;;;;;;;;;;14.80;63.10;;;;;;5066178;28;19981;-90
2022/12/06 13:10:53;;;;;;;;;;;14.80;62.40;;;;;;5066850;28;20052;-90
2022/12/06 13:13:48;;;;;;;;;;;14.30;63.10;;;;;;5057718;28;20611;-90
2022/12/06 13:16:17;;;;;;;;;;;14.50;63.70;;;;;;5055990;28;20409;-90
2022/12/06 13:18:53;;;;;;;;;;;14.10;63.40;;;;;;5069122;28;19995;-89
2022/12/06 13:21:21;;;;;;;;;;;14.00;65.60;;;;;;5063479;28;19999;-89
2022/12/06 13:23:49;;;;;;;;;;;14.40;63.50;;;;;;5068711;28;19946;-90
2022/12/06 13:26:14;;;;;;;;;;;14.20;64.40;;;;;;5065370;28;19943;-90
2022/12/06 13:28:43;;;;;;;;;;;14.30;64.70;;;;;;5070065;28;20496;-90
2022/12/06 13:31:12;;;;;;;;;;;14.30;63.90;;;;;;5069424;28;19948;-90
2022/12/06 13:33:41;;;;;;;;;;;13.90;65.00;;;;;;5068270;28;19938;-90
2022/12/06 13:36:09;;;;;;;;;;;13.80;65.30;;;;;;5071208;28;19976;-89
2022/12/06 13:38:36;;;;;;;;;;;14.10;64.70;;;;;;5061056;28;19949;-90
2022/12/06 13:41:05;;;;;;;;;;;14.00;64.30;;;;;;5069613;28;20403;-89
2022/12/06 13:43:31;;;;;;;;;;;14.40;64.30;;;;;;5070587;28;20056;-90
2022/12/06 13:46:05;;;;;;;;;;;14.60;63.30;;;;;;5069254;28;20033;-90
2022/12/06 13:48:36;;;;;;;;;;;14.50;62.20;;;;;;5066352;28;19947;-89
2022/12/06 13:51:10;;;;;;;;;;;14.10;64.00;;;;;;5066501;28;19946;-89
2022/12/06 13:53:55;;;;;;;;;;;14.10;64.10;;;;;;5054445;28;20323;-90
2022/12/06 13:56:47;;;;;;;;;;;13.90;65.10;;;;;;5060131;28;19960;-89
2022/12/06 13:59:14;;;;;;;;;;;14.30;63.70;;;;;;5060784;28;19955;-89
2022/12/06 14:01:42;;;;;;;;;;;14.20;64.10;;;;;;5068853;28;19994;-90
2022/12/06 14:04:23;;;;;;;;;;;13.90;65.50;;;;;;5065613;28;20001;-90
2022/12/06 14:06:50;;;;;;;;;;;13.20;66.80;;;;;;5066627;28;19944;-89
2022/12/06 14:09:16;;;;;;;;;;;13.10;68.60;;;;;;5067454;28;19947;-89
2022/12/06 14:11:41;;;;;;;;;;;13.40;67.60;;;;;;5065193;28;20329;-90
2022/12/06 14:14:23;;;;;;;;;;;13.70;67.70;;;;;;5072632;28;19946;-90
2022/12/06 14:17:12;;;;;;;;;;;13.80;66.90;;;;;;5072644;28;20058;-89
2022/12/06 14:19:42;;;;;;;;;;;13.60;67.10;;;;;;5063942;28;19948;-89
2022/12/06 14:22:29;;;;;;;;;;;13.20;68.10;;;;;;5073053;28;20466;-89
2022/12/06 14:25:00;;;;;;;;;;;13.10;68.30;;;;;;5071556;28;20007;-89
2022/12/06 14:27:26;;;;;;;;;;;13.10;69.20;;;;;;5071450;28;19938;-89
2022/12/06 14:30:11;;;;;;;;;;;12.90;69.10;;;;;;5070259;28;19944;-91
2022/12/06 14:32:39;;;;;;;;;;;12.70;69.60;;;;;;5070920;28;19947;-90
2022/12/06 14:35:09;;;;;;;;;;;12.50;70.30;;;;;;5070465;28;20024;-89
2022/12/06 14:37:34;;;;;;;;;;;12.40;70.10;;;;;;5074464;28;19940;-89
2022/12/06 14:40:00;;;;;;;;;;;12.30;70.80;;;;;;5068546;28;19947;-90
2022/12/06 14:45:12;;;;;;;;;;;11.80;72.20;;;;;;5072601;28;20096;-90
2022/12/06 14:47:37;;;;;;;;;;;11.40;73.50;;;;;;5063876;28;20432;-90
2022/12/06 14:50:25;;;;;;;;;;;11.30;74.10;;;;;;5059215;28;19996;-90
2022/12/06 14:53:00;;;;;;;;;;;11.10;75.30;;;;;;5063680;28;20089;-89
2022/12/06 14:55:26;;;;;;;;;;;10.90;75.90;;;;;;5069739;28;19994;-90
2022/12/06 14:57:57;;;;;;;;;;;10.80;76.20;;;;;;5063661;28;19953;-90
2022/12/06 15:00:32;;;;;;;;;;;10.80;76.30;;;;;;5071184;28;19944;-90
2022/12/06 15:02:57;;;;;;;;;;;10.40;77.20;;;;;;5063846;28;20034;-90
2022/12/06 15:05:33;;;;;;;;;;;10.40;77.70;;;;;;5069523;28;20070;-89
2022/12/06 15:08:16;;;;;;;;;;;10.10;78.50;;;;;;5070014;28;19947;-90
2022/12/06 15:10:52;;;;;;;;;;;10.00;78.90;;;;;;5072393;28;20511;-90